Time;durP1;ratioP1;P1;durP2;ratioP2;P2;SDS_P1;SDS_P2;PMS_P1;PMS_P2;Temp;Humidity;BMP_temperature;BMP_pressure;BME280_temperature;BME280_humidity;BME280_pressure;Samples;Min_cycle;Max_cycle;Signal;HPM_P1;HPM_P2
2022/11/20 00:01:36;;;;;;;41.00;25.83;;;2.20;99.90;;;2.27;73.75;101256.13;5118392;28;20574;-83
2022/11/20 00:04:06;;;;;;;36.27;24.23;;;2.30;99.90;;;2.32;73.87;101220.66;5117490;28;20059;-83
2022/11/20 00:06:34;;;;;;;34.28;22.90;;;2.40;99.90;;;2.56;73.58;101234.50;5117361;28;20043;-83
2022/11/20 00:09:03;;;;;;;30.30;21.20;;;2.60;99.90;;;2.70;73.49;101233.25;5116428;28;20036;-82
2022/11/20 00:11:32;;;;;;;29.70;21.87;;;2.70;99.90;;;2.74;72.90;101238.63;5114885;28;20384;-83
2022/11/20 00:14:02;;;;;;;30.43;20.33;;;2.80;99.90;;;2.85;73.13;101233.75;5114154;28;20055;-83
2022/11/20 00:16:34;;;;;;;28.73;20.13;;;2.90;99.90;;;2.82;72.63;101237.97;5115552;28;20615;-83
2022/11/20 00:19:02;;;;;;;33.50;20.70;;;2.90;99.90;;;2.74;72.46;101204.69;5114092;28;20040;-83
2022/11/20 00:21:33;;;;;;;28.50;21.23;;;2.90;99.90;;;2.99;72.32;101232.47;5114284;28;20043;-83
2022/11/20 00:24:01;;;;;;;29.65;21.92;;;3.00;99.90;;;2.66;72.37;101167.00;5114592;28;20119;-83
2022/11/20 00:26:30;;;;;;;34.03;22.13;;;3.00;99.90;;;2.93;72.13;101205.25;5113966;28;20032;-82
2022/11/20 00:29:00;;;;;;;29.10;20.60;;;3.00;99.90;;;3.05;72.24;101221.31;5096039;28;20055;-83
2022/11/20 00:31:30;;;;;;;26.40;20.27;;;3.10;99.90;;;2.96;71.85;101203.63;5114443;28;20596;-83
2022/11/20 00:33:58;;;;;;;30.08;20.67;;;3.10;99.90;;;3.04;71.80;101209.09;5114430;28;20067;-83
2022/11/20 00:36:29;;;;;;;26.30;20.13;;;3.10;99.90;;;3.00;72.04;101204.63;5114081;28;20040;-83
2022/11/20 00:39:00;;;;;;;28.47;20.67;;;3.10;99.90;;;3.07;71.75;101214.41;5113828;28;20040;-83
2022/11/20 00:41:29;;;;;;;28.17;20.52;;;3.10;99.90;;;3.01;71.04;101211.59;5114107;28;20046;-83
2022/11/20 00:43:58;;;;;;;25.20;20.67;;;3.00;99.90;;;2.68;71.15;101196.66;5114566;28;20058;-83
2022/11/20 00:46:28;;;;;;;28.83;20.53;;;3.00;99.90;;;2.90;71.12;101226.06;5113662;28;20439;-83
2022/11/20 00:48:57;;;;;;;27.47;20.73;;;2.90;99.90;;;2.78;71.38;101210.00;5113737;28;20118;-83
2022/11/20 00:51:28;;;;;;;26.30;19.13;;;2.80;99.90;;;2.94;71.39;101213.16;5113484;28;20042;-83
2022/11/20 00:53:59;;;;;;;28.10;21.63;;;2.90;99.90;;;2.92;71.33;101219.16;5113657;28;20412;-83
2022/11/20 00:56:28;;;;;;;29.37;21.83;;;2.90;99.90;;;2.80;71.79;101217.06;5113730;28;20397;-83
2022/11/20 00:59:00;;;;;;;26.17;20.03;;;2.90;99.90;;;2.77;71.58;101221.28;5113576;28;20047;-82
2022/11/20 01:01:29;;;;;;;25.87;19.77;;;2.80;99.90;;;2.51;71.06;101186.50;5113641;28;20040;-83
2022/11/20 01:04:00;;;;;;;33.35;19.80;;;2.70;99.90;;;2.59;71.11;101214.59;5113714;28;20538;-87
2022/11/20 01:06:31;;;;;;;26.77;20.13;;;2.60;99.90;;;2.75;71.67;101198.59;5113776;28;20070;-87
2022/11/20 01:09:05;;;;;;;28.93;20.37;;;2.70;99.90;;;2.73;71.90;101187.22;5113803;28;20122;-89
2022/11/20 01:11:36;;;;;;;26.07;18.50;;;2.80;99.90;;;2.61;71.81;101201.63;5113932;28;20097;-87
2022/11/20 01:14:07;;;;;;;28.10;19.83;;;2.70;99.90;;;2.53;71.49;101203.09;5118345;28;20101;-81
2022/11/20 01:16:38;;;;;;;26.70;19.83;;;2.60;99.90;;;2.24;71.85;101209.06;5117610;28;20067;-83
2022/11/20 01:19:11;;;;;;;25.53;19.47;;;2.40;99.90;;;2.14;71.81;101205.25;5117564;28;20105;-87
2022/11/20 01:21:47;;;;;;;30.83;20.07;;;2.30;99.90;;;2.18;71.99;101214.97;5117706;28;20043;-84
2022/11/20 01:24:19;;;;;;;28.47;20.37;;;2.20;99.90;;;1.88;72.20;101213.00;5117409;28;20044;-84
2022/11/20 01:26:50;;;;;;;31.47;21.87;;;2.10;99.90;;;1.21;72.31;101087.19;5117478;28;20036;-85
2022/11/20 01:29:22;;;;;;;28.57;19.73;;;2.10;99.90;;;1.78;72.75;101206.59;5099416;28;20448;-84
2022/11/20 01:31:52;;;;;;;28.57;20.40;;;1.90;99.90;;;1.90;73.03;101207.00;5117644;28;20088;-85
2022/11/20 01:34:23;;;;;;;28.70;21.25;;;1.90;99.90;;;1.77;73.10;101217.81;5117347;28;20404;-85
2022/11/20 01:36:51;;;;;;;;;;;1.90;99.90;;;1.84;73.45;101199.84;5118062;28;20392;-85
2022/11/20 01:39:23;;;;;;;26.73;20.67;;;1.90;99.90;;;2.10;73.24;101194.66;5117395;28;19924;-84
2022/11/20 01:44:53;;;;;;;27.93;19.50;;;2.20;99.90;;;2.21;72.77;101206.34;5099011;28;20104;-85
2022/11/20 01:47:31;;;;;;;29.15;19.98;;;2.30;99.90;;;2.16;72.81;101206.19;5117038;28;20378;-84
2022/11/20 01:50:05;;;;;;;27.63;20.13;;;2.30;99.90;;;2.33;72.76;101194.59;5117014;28;20047;-84
2022/11/20 01:52:40;;;;;;;25.37;19.27;;;2.30;99.90;;;2.37;72.23;101193.88;5116945;28;20044;-85
2022/11/20 01:55:15;;;;;;;27.97;19.77;;;2.30;99.90;;;2.38;72.27;101195.63;5098957;28;20043;-84
2022/11/20 01:57:46;;;;;;;28.43;19.60;;;2.40;99.90;;;2.36;72.29;101191.22;5117216;28;20051;-85
2022/11/20 02:00:19;;;;;;;27.67;20.10;;;2.40;99.90;;;2.34;71.98;101198.97;5117081;28;20143;-85
2022/11/20 02:02:53;;;;;;;26.83;20.20;;;2.40;99.90;;;2.38;72.06;101193.03;5116796;28;20031;-85
2022/11/20 02:05:32;;;;;;;30.13;20.83;;;2.40;99.90;;;2.30;71.98;101178.84;5116710;28;20104;-84
2022/11/20 02:08:02;;;;;;;28.03;20.73;;;2.50;99.90;;;2.44;72.26;101201.06;5116707;28;20109;-84
2022/11/20 02:10:32;;;;;;;;;;;2.50;99.90;;;2.49;72.44;101196.91;5116933;28;20077;-84
2022/11/20 02:15:47;;;;;;;30.07;21.70;;;2.50;99.90;;;2.56;72.55;101198.84;5116818;28;20069;-84
2022/11/20 02:18:20;;;;;;;26.80;20.10;;;2.60;99.90;;;1.98;72.48;101093.41;5116454;28;20039;-84
2022/11/20 02:20:53;;;;;;;28.23;19.93;;;2.60;99.90;;;2.41;72.06;101150.50;5116715;28;20438;-84
2022/11/20 02:23:31;;;;;;;27.23;20.57;;;2.60;99.90;;;2.68;72.25;101186.22;5115293;28;20058;-84
2022/11/20 02:26:03;;;;;;;27.13;20.20;;;2.70;99.90;;;2.50;72.35;101151.66;5116641;28;20127;-84
2022/11/20 02:28:31;;;;;;;28.50;20.80;;;2.70;99.90;;;2.71;72.58;101180.19;5116235;28;20044;-85
2022/11/20 02:30:59;;;;;;;25.73;18.87;;;2.70;99.90;;;2.74;72.34;101173.34;5098143;28;20043;-84
2022/11/20 02:33:28;;;;;;;28.83;20.67;;;2.80;99.90;;;2.55;72.21;101134.44;5098135;28;20142;-84
2022/11/20 02:35:56;;;;;;;28.10;20.73;;;2.80;99.90;;;2.45;72.29;101106.28;5098112;28;20055;-85
2022/11/20 02:38:25;;;;;;;26.23;19.63;;;2.80;99.90;;;2.77;72.40;101169.06;5116061;28;20036;-85
2022/11/20 02:40:53;;;;;;;29.77;21.40;;;2.80;99.90;;;2.73;72.69;101166.34;5098207;28;20048;-84
2022/11/20 02:43:24;;;;;;;26.85;20.48;;;2.80;99.90;;;2.80;72.56;101156.97;5116544;28;20096;-84
2022/11/20 02:45:53;;;;;;;27.90;20.20;;;2.80;99.90;;;2.73;72.81;101152.38;5116051;28;20062;-84
2022/11/20 02:48:21;;;;;;;27.30;20.50;;;2.80;99.90;;;2.64;72.55;101166.06;5115850;28;20122;-84
2022/11/20 02:50:52;;;;;;;30.10;21.17;;;2.80;99.90;;;2.74;72.67;101155.06;5115777;28;20048;-84
2022/11/20 02:53:20;;;;;;;27.87;20.37;;;2.80;99.90;;;2.75;72.68;101163.75;5115740;28;20036;-84
2022/11/20 02:55:49;;;;;;;27.43;19.97;;;2.80;99.90;;;2.68;72.81;101147.03;5116027;28;20048;-84
2022/11/20 02:58:17;;;;;;;30.27;21.30;;;2.80;99.90;;;2.47;72.99;101116.75;5115555;28;20051;-84
2022/11/20 03:00:47;;;;;;;26.90;19.97;;;2.80;99.90;;;2.74;72.71;101149.84;5097604;28;20545;-84
2022/11/20 03:03:15;;;;;;;25.83;19.75;;;2.80;99.90;;;2.63;72.73;101148.59;5097548;28;20040;-84
2022/11/20 03:05:43;;;;;;;28.03;20.10;;;2.70;99.90;;;2.62;72.88;101144.22;5115749;28;20063;-84
2022/11/20 03:08:12;;;;;;;28.57;21.60;;;2.70;99.90;;;2.61;72.96;101144.19;5097490;28;20051;-83
2022/11/20 03:10:40;;;;;;;27.80;21.07;;;2.70;99.90;;;2.65;73.09;101146.94;5115990;28;20122;-84
2022/11/20 03:13:09;;;;;;;29.20;21.77;;;2.70;99.90;;;1.85;73.29;101015.59;5115538;28;20035;-83
2022/11/20 03:15:38;;;;;;;27.63;20.63;;;2.70;99.90;;;2.61;73.23;101134.63;5115371;28;20050;-83
2022/11/20 03:18:08;;;;;;;26.37;20.67;;;2.70;99.90;;;2.50;73.25;101138.63;5097266;28;20082;-84
2022/11/20 03:20:36;;;;;;;27.77;21.42;;;2.60;99.90;;;1.95;73.21;101119.38;5115628;28;20039;-84
2022/11/20 03:23:05;;;;;;;27.80;20.73;;;2.20;99.90;;;2.16;74.21;101135.75;5115173;28;20044;-84
2022/11/20 03:25:33;;;;;;;27.80;20.87;;;2.10;99.90;;;2.20;74.14;101136.75;5115691;28;20040;-83
2022/11/20 03:28:01;;;;;;;28.70;21.07;;;2.10;99.90;;;2.18;74.89;101123.66;5115063;28;20051;-83
2022/11/20 03:30:30;;;;;;;28.00;18.80;;;2.10;99.90;;;2.14;75.70;101124.38;5115264;28;20048;-84
2022/11/20 03:32:58;;;;;;;28.17;21.03;;;2.10;99.90;;;2.20;76.13;101129.81;5114494;28;20047;-83
2022/11/20 03:35:28;;;;;;;29.57;20.30;;;2.10;99.90;;;1.88;76.81;101093.91;5114282;28;20096;-83
2022/11/20 03:37:58;;;;;;;28.45;22.10;;;2.00;99.90;;;1.55;76.55;100980.69;5115487;28;20496;-84
2022/11/20 03:40:26;;;;;;;26.05;19.45;;;2.20;99.90;;;2.19;76.11;101119.31;5115018;28;20039;-83
2022/11/20 03:42:55;;;;;;;29.43;21.00;;;2.20;99.90;;;2.19;76.73;101116.72;5096631;28;20130;-84
2022/11/20 03:45:23;;;;;;;28.00;19.87;;;2.10;99.90;;;2.11;76.71;101107.75;5115017;28;20067;-83
2022/11/20 03:47:52;;;;;;;28.83;20.47;;;2.10;99.90;;;2.23;76.54;101106.41;5096468;28;20465;-84
2022/11/20 03:50:21;;;;;;;25.67;19.17;;;2.10;99.90;;;2.26;76.24;101096.09;5096269;28;20067;-83
2022/11/20 03:52:51;;;;;;;27.83;20.50;;;2.20;99.90;;;2.18;76.13;101071.47;5096216;28;20054;-83
2022/11/20 03:55:19;;;;;;;30.13;22.33;;;2.20;99.90;;;2.30;75.89;101121.44;5096057;28;20449;-83
2022/11/20 03:57:48;;;;;;;29.13;20.80;;;2.30;99.90;;;1.48;75.83;100935.31;5114196;28;20374;-83
2022/11/20 04:00:17;;;;;;;27.27;20.20;;;2.40;99.90;;;2.31;75.88;101078.84;5096131;28;20460;-83
2022/11/20 04:02:45;;;;;;;27.03;20.30;;;2.40;99.90;;;2.16;75.60;101064.44;5096048;28;20043;-82
2022/11/20 04:05:14;;;;;;;28.70;20.80;;;2.30;99.90;;;2.31;75.50;101071.00;5096195;28;20051;-82
2022/11/20 04:07:42;;;;;;;29.13;20.57;;;2.30;99.90;;;2.27;75.36;101073.47;5114641;28;20051;-82
2022/11/20 04:10:12;;;;;;;27.33;20.33;;;2.30;99.90;;;2.14;75.22;101061.78;5114322;28;20046;-83
2022/11/20 04:12:40;;;;;;;29.08;21.40;;;2.30;99.90;;;2.05;75.72;101048.44;5113765;28;20035;-82
2022/11/20 04:15:10;;;;;;;28.53;21.10;;;2.10;99.90;;;2.07;75.93;101044.13;5114328;28;20047;-82
2022/11/20 04:17:38;;;;;;;30.17;21.97;;;2.20;99.90;;;1.77;75.31;101011.84;5113676;28;20168;-82
2022/11/20 04:20:08;;;;;;;28.90;21.77;;;2.10;99.90;;;1.99;75.90;101043.03;5113798;28;20521;-82
2022/11/20 04:22:36;;;;;;;27.98;21.25;;;2.10;99.90;;;2.05;75.76;101053.66;5113565;28;20109;-82
2022/11/20 04:25:06;;;;;;;30.27;21.83;;;2.10;99.90;;;2.00;75.96;101052.59;5095447;28;20138;-82
2022/11/20 04:27:35;;;;;;;27.90;21.60;;;2.10;99.90;;;2.05;76.12;101051.06;5113761;28;20067;-82
2022/11/20 04:30:05;;;;;;;29.67;21.80;;;2.10;99.90;;;1.19;75.82;100945.59;5113541;28;20084;-82
2022/11/20 04:32:33;;;;;;;28.07;21.00;;;2.00;99.90;;;1.82;76.18;101059.81;5113335;28;20067;-82
2022/11/20 04:35:01;;;;;;;30.43;21.33;;;1.90;99.90;;;1.92;76.50;101072.31;5113903;28;20051;-82
2022/11/20 04:37:30;;;;;;;30.20;21.97;;;2.00;99.90;;;2.00;76.58;101076.06;5113596;28;20209;-82
2022/11/20 04:39:58;;;;;;;33.60;22.03;;;2.00;99.90;;;1.65;76.08;101050.53;5113511;28;20039;-82
2022/11/20 04:42:29;;;;;;;28.23;21.53;;;1.90;99.90;;;1.74;76.56;101069.13;5113839;28;20099;-82
2022/11/20 04:44:59;;;;;;;30.60;22.37;;;1.90;99.90;;;1.89;77.08;101069.63;5113227;28;20051;-82
2022/11/20 04:47:28;;;;;;;28.70;20.50;;;1.90;99.90;;;1.77;76.86;101031.00;5112701;28;20039;-82
2022/11/20 04:49:56;;;;;;;27.07;21.20;;;2.00;99.90;;;1.96;77.05;101066.38;5095306;28;20075;-82
2022/11/20 04:52:25;;;;;;;30.00;21.80;;;2.00;99.90;;;1.44;77.05;100969.03;5113069;28;20123;-82
2022/11/20 04:54:53;;;;;;;29.30;22.23;;;2.00;99.90;;;1.86;76.98;101045.19;5094725;28;20094;-81
2022/11/20 04:57:22;;;;;;;29.53;21.13;;;2.00;99.90;;;2.03;77.33;101057.94;5113123;28;20431;-82
2022/11/20 04:59:51;;;;;;;29.90;21.67;;;2.10;99.90;;;1.99;76.76;101071.72;5113030;28;20185;-82
2022/11/20 05:02:21;;;;;;;29.50;21.33;;;2.10;99.90;;;2.10;76.72;101056.41;5113138;28;20051;-82
2022/11/20 05:04:49;;;;;;;29.35;21.67;;;2.10;99.90;;;2.11;76.95;101055.56;5095055;28;20078;-82
2022/11/20 05:07:17;;;;;;;30.00;21.67;;;2.10;99.90;;;2.12;76.95;101062.56;5113153;28;20378;-82
2022/11/20 05:09:46;;;;;;;31.80;22.40;;;2.20;99.90;;;2.13;77.12;101064.34;5112965;28;20054;-82
2022/11/20 05:12:14;;;;;;;30.57;22.33;;;2.20;99.90;;;1.66;76.90;100976.75;5094757;28;20040;-81
2022/11/20 05:14:43;;;;;;;28.27;21.03;;;2.20;99.90;;;2.17;77.12;101056.63;5094956;28;20086;-82
2022/11/20 05:17:12;;;;;;;30.30;22.70;;;2.20;99.90;;;2.23;77.15;101062.06;5094870;28;20055;-82
2022/11/20 05:19:42;;;;;;;28.37;22.20;;;2.20;99.90;;;2.24;77.00;101049.91;5112843;28;20042;-82
2022/11/20 05:22:10;;;;;;;27.80;21.52;;;2.30;99.90;;;2.27;77.00;101071.75;5113196;28;20125;-81
2022/11/20 05:24:39;;;;;;;31.20;22.97;;;2.20;99.90;;;2.28;77.20;101057.88;5112911;28;20067;-81
2022/11/20 05:27:07;;;;;;;31.40;22.77;;;2.20;99.90;;;1.90;77.00;100997.50;5112860;28;20408;-82
2022/11/20 05:29:35;;;;;;;29.47;22.77;;;2.20;99.90;;;2.24;76.76;101061.22;5112801;28;20035;-81
2022/11/20 05:32:05;;;;;;;28.77;22.50;;;2.20;99.90;;;2.18;77.13;101044.50;5112746;28;20558;-81
2022/11/20 05:34:34;;;;;;;31.95;22.73;;;2.20;99.90;;;2.33;77.29;101047.56;5112571;28;20489;-81
2022/11/20 05:37:04;;;;;;;30.53;22.53;;;2.30;99.90;;;2.21;77.20;101027.19;5094668;28;20043;-81
2022/11/20 05:39:32;;;;;;;29.85;22.30;;;2.30;99.90;;;1.68;77.36;100925.53;5112704;28;20036;-81
2022/11/20 05:44:46;;;;;;;29.27;22.60;;;2.40;99.90;;;2.29;77.25;101017.91;5112841;28;20104;-81
2022/11/20 05:47:15;;;;;;;30.67;22.87;;;2.40;99.90;;;2.37;77.28;101028.56;5094660;28;20437;-81
2022/11/20 05:49:43;;;;;;;32.47;24.20;;;2.40;99.90;;;2.41;77.43;101033.94;5112868;28;20055;-81
2022/11/20 05:52:13;;;;;;;31.17;22.90;;;2.40;99.90;;;2.44;77.28;101026.19;5094554;28;20499;-81
2022/11/20 05:54:41;;;;;;;31.40;23.67;;;2.40;99.90;;;2.30;77.40;101006.63;5112713;28;20096;-81
2022/11/20 05:57:10;;;;;;;30.90;23.33;;;2.40;99.90;;;2.26;77.32;100996.03;5112989;28;20056;-81
2022/11/20 05:59:38;;;;;;;29.47;21.07;;;2.40;99.90;;;2.20;77.25;100983.69;5116181;28;20128;-82
2022/11/20 06:02:07;;;;;;;29.70;22.83;;;2.40;99.90;;;2.21;77.47;100971.53;5116558;28;20043;-81
2022/11/20 06:04:35;;;;;;;34.73;24.27;;;2.40;99.90;;;2.27;77.54;100979.53;5098270;28;20346;-81
2022/11/20 06:07:05;;;;;;;30.90;22.67;;;2.50;99.90;;;2.03;77.39;100947.50;5098145;28;20078;-82
2022/11/20 06:09:35;;;;;;;29.33;22.05;;;2.50;99.90;;;2.41;77.39;101005.22;5116571;28;20100;-82
2022/11/20 06:12:04;;;;;;;34.65;24.17;;;2.50;99.90;;;2.42;77.54;101009.59;5116313;28;20065;-81
2022/11/20 06:14:33;;;;;;;30.00;23.03;;;2.50;99.90;;;2.39;77.24;101001.69;5115889;28;20448;-82
2022/11/20 06:17:01;;;;;;;31.10;22.40;;;2.50;99.90;;;2.39;77.47;101000.78;5116175;28;20047;-81
2022/11/20 06:19:30;;;;;;;30.07;23.93;;;2.40;99.90;;;2.28;77.67;100995.25;5116130;28;20043;-81
2022/11/20 06:21:58;;;;;;;30.67;23.10;;;2.40;99.90;;;2.25;77.95;100989.03;5115896;28;20040;-81
2022/11/20 06:24:26;;;;;;;30.70;22.07;;;2.30;99.90;;;2.30;78.03;100980.53;5115777;28;20142;-81
2022/11/20 06:26:56;;;;;;;29.07;21.50;;;2.40;99.90;;;2.27;78.19;100985.66;5115838;28;20047;-81
2022/11/20 06:29:25;;;;;;;31.38;22.08;;;2.40;99.90;;;2.21;78.35;100990.69;5115700;28;20534;-81
2022/11/20 06:32:00;;;;;;;31.33;22.30;;;2.40;99.90;;;2.27;78.05;100975.22;5097698;28;20058;-81
2022/11/20 06:34:29;;;;;;;31.13;22.20;;;2.30;99.90;;;2.24;78.19;100984.69;5097583;28;20071;-81
2022/11/20 06:36:57;;;;;;;32.30;23.37;;;2.30;99.90;;;2.23;78.18;100978.56;5115874;28;20081;-81
2022/11/20 06:39:26;;;;;;;28.80;22.17;;;2.40;99.90;;;2.25;78.61;100971.66;5115576;28;20127;-81
2022/11/20 06:41:55;;;;;;;31.37;23.73;;;2.40;99.90;;;2.30;78.83;100977.94;5097454;28;20044;-82
2022/11/20 06:44:26;;;;;;;31.33;23.10;;;2.40;99.90;;;2.36;79.00;100980.69;5115832;28;20062;-82
2022/11/20 06:46:55;;;;;;;32.57;23.90;;;2.40;99.90;;;2.35;78.67;100989.38;5115808;28;20453;-82
2022/11/20 06:49:23;;;;;;;30.50;23.03;;;2.40;99.90;;;2.34;78.82;100991.94;5115529;28;20061;-82
2022/11/20 06:51:52;;;;;;;30.67;22.67;;;2.40;99.90;;;2.22;78.92;100986.34;5115411;28;20040;-82
2022/11/20 06:54:20;;;;;;;30.63;22.50;;;2.40;99.90;;;2.34;79.07;100998.03;5115292;28;20035;-82
2022/11/20 06:56:49;;;;;;;33.73;23.83;;;2.40;99.90;;;2.13;79.28;100992.16;5097249;28;20053;-81
2022/11/20 06:59:19;;;;;;;35.20;24.50;;;2.30;99.90;;;1.77;79.43;100984.06;5115653;28;20092;-82
2022/11/20 07:01:48;;;;;;;33.83;23.13;;;2.20;99.90;;;1.51;80.75;100984.06;5115426;28;20043;-82
2022/11/20 07:04:16;;;;;;;33.80;23.93;;;1.70;99.90;;;1.31;82.79;100988.59;5115543;28;20040;-82
2022/11/20 07:06:45;;;;;;;30.70;22.50;;;1.40;99.90;;;1.16;84.12;100987.19;5096772;28;20054;-81
2022/11/20 07:09:13;;;;;;;34.57;24.23;;;1.10;99.90;;;0.61;83.88;100922.75;5114390;28;20118;-81
2022/11/20 07:11:42;;;;;;;33.03;23.47;;;1.50;99.90;;;1.56;83.66;100992.91;5115046;28;20043;-81
2022/11/20 07:14:10;;;;;;;33.27;23.57;;;1.60;99.90;;;1.27;83.61;100978.91;5115126;28;20389;-81
2022/11/20 07:16:40;;;;;;;34.63;23.83;;;1.30;99.90;;;0.90;84.69;100978.44;5115190;28;20354;-81
2022/11/20 07:19:08;;;;;;;33.50;24.15;;;1.00;99.90;;;0.67;86.33;100967.22;5096846;28;20043;-81
2022/11/20 07:21:37;;;;;;;33.27;23.37;;;0.70;99.90;;;0.78;86.95;100936.34;5115500;28;20066;-81
2022/11/20 07:24:06;;;;;;;35.03;24.40;;;0.90;99.90;;;1.10;87.16;100972.22;5114753;28;20172;-81
2022/11/20 07:26:35;;;;;;;32.57;24.00;;;1.00;99.90;;;1.40;86.84;100981.09;5096664;28;20134;-78
2022/11/20 07:29:03;;;;;;;36.23;26.07;;;1.30;99.90;;;1.60;86.12;100971.31;5114597;28;20047;-82
2022/11/20 07:31:32;;;;;;;35.53;25.00;;;1.60;99.90;;;1.58;86.09;100946.94;5114842;28;20035;-78
2022/11/20 07:34:02;;;;;;;35.90;25.33;;;1.70;99.90;;;1.55;85.83;100978.97;5096406;28;20043;-80
2022/11/20 07:36:30;;;;;;;34.13;25.33;;;1.70;99.90;;;1.54;86.39;100976.34;5114661;28;20085;-85
2022/11/20 07:38:58;;;;;;;39.03;27.80;;;1.60;99.90;;;1.46;86.97;100977.78;5114993;28;20062;-78
2022/11/20 07:41:27;;;;;;;35.77;26.53;;;1.50;99.90;;;1.60;87.46;100984.34;5114340;28;20122;-78
2022/11/20 07:43:55;;;;;;;34.63;25.93;;;1.60;99.90;;;1.67;86.86;100982.00;5114242;28;20045;-83
2022/11/20 07:46:24;;;;;;;36.63;25.43;;;1.60;99.90;;;1.75;87.42;100990.06;5114085;28;20458;-81
2022/11/20 07:48:53;;;;;;;37.57;24.23;;;1.70;99.90;;;1.85;86.92;100984.31;5114674;28;20365;-82
2022/11/20 07:51:22;;;;;;;35.30;26.00;;;1.80;99.90;;;1.89;87.28;100972.25;5114190;28;20048;-80
2022/11/20 07:53:54;;;;;;;42.83;27.23;;;1.90;99.90;;;1.90;86.90;100984.47;5095984;28;20120;-77
2022/11/20 07:56:23;;;;;;;46.70;31.30;;;2.00;99.90;;;1.71;87.23;100967.34;5113913;28;20036;-78
2022/11/20 07:58:51;;;;;;;42.40;28.40;;;1.90;99.90;;;0.91;88.01;100843.13;5114324;28;20096;-78
2022/11/20 08:01:20;;;;;;;38.23;26.53;;;1.70;99.90;;;1.54;88.51;100972.00;5113895;28;20397;-78
2022/11/20 08:03:48;;;;;;;35.83;26.70;;;1.60;99.90;;;1.21;89.46;100986.50;5113938;28;20043;-77
2022/11/20 08:06:18;;;;;;;37.47;27.33;;;1.40;99.90;;;1.53;90.54;100956.34;5113944;28;20458;-79
2022/11/20 08:08:48;;;;;;;41.28;28.17;;;1.50;99.90;;;1.65;89.94;100969.75;5113739;28;20043;-79
2022/11/20 08:14:16;;;;;;;39.83;26.15;;;1.70;99.90;;;1.44;90.43;100992.50;5053899;28;20126;-79
2022/11/20 08:16:47;;;;;;;42.00;28.30;;;1.40;99.90;;;1.33;91.32;100978.22;5070956;28;20107;-78
2022/11/20 08:19:18;;;;;;;43.50;28.43;;;1.40;99.90;;;1.36;92.06;100965.28;5073840;28;20390;-80
2022/11/20 08:21:47;;;;;;;37.80;27.43;;;1.40;99.90;;;1.44;91.91;100976.84;5114065;28;20108;-79
2022/11/20 08:24:17;;;;;;;41.10;28.07;;;1.40;99.90;;;1.47;91.76;100972.63;5113440;28;20462;-80
2022/11/20 08:26:45;;;;;;;37.17;27.63;;;1.50;99.90;;;1.53;92.22;100971.97;5113472;28;20048;-80
2022/11/20 08:29:13;;;;;;;40.97;28.40;;;1.50;99.90;;;1.61;92.28;101002.66;5113937;28;20441;-81
2022/11/20 08:31:42;;;;;;;43.07;28.67;;;1.50;99.90;;;1.57;92.38;100933.00;5113444;28;20554;-81
2022/11/20 08:34:11;;;;;;;38.27;27.00;;;1.60;99.90;;;1.77;92.23;100959.72;5095303;28;20043;-81
2022/11/20 08:36:46;;;;;;;38.77;27.40;;;1.70;99.90;;;1.88;92.18;100988.75;5095554;28;20073;-80
2022/11/20 08:39:16;;;;;;;39.13;27.03;;;1.80;99.90;;;0.97;91.98;100824.19;5095374;28;20389;-80
2022/11/20 08:41:45;;;;;;;37.80;27.50;;;1.70;99.90;;;1.87;92.10;100960.91;5095545;28;20465;-80
2022/11/20 08:44:13;;;;;;;46.20;29.80;;;1.80;99.90;;;1.92;92.63;100964.56;5113255;28;20479;-80
2022/11/20 08:46:43;;;;;;;41.67;29.50;;;1.90;99.90;;;1.77;92.74;100957.09;5095338;28;20142;-80
2022/11/20 08:49:14;;;;;;;44.15;30.80;;;1.70;99.90;;;1.34;93.62;100879.28;5113221;28;20487;-81
2022/11/20 08:51:43;;;;;;;45.17;31.07;;;1.70;99.90;;;1.74;94.05;100949.22;5095475;28;20047;-81
2022/11/20 08:54:11;;;;;;;44.70;30.87;;;1.70;99.90;;;1.81;94.61;100951.16;5113459;28;20043;-80
2022/11/20 08:56:41;;;;;;;48.57;32.03;;;1.80;99.90;;;1.90;94.88;100956.66;5113418;28;20134;-80
2022/11/20 08:59:10;;;;;;;57.70;32.17;;;1.90;99.90;;;1.79;94.99;100927.66;5113112;28;20042;-80
2022/11/20 09:01:58;;;;;;;46.83;32.13;;;1.90;99.90;;;1.87;95.64;100953.97;5094964;28;20366;-80
2022/11/20 09:04:26;;;;;;;48.97;33.43;;;1.90;99.90;;;1.82;96.25;100935.56;5095016;28;20048;-81
2022/11/20 09:06:55;;;;;;;51.20;33.60;;;1.90;99.90;;;1.83;96.70;100931.22;5113798;28;20044;-81
2022/11/20 09:09:23;;;;;;;50.50;33.00;;;1.90;99.90;;;1.99;96.85;100946.53;5112913;28;20345;-82
2022/11/20 09:11:53;;;;;;;49.73;32.90;;;2.00;99.90;;;2.04;97.09;100939.72;5112569;28;20044;-81
2022/11/20 09:14:24;;;;;;;47.40;32.65;;;2.00;99.90;;;2.11;97.63;100943.41;5112845;28;20493;-81
2022/11/20 09:16:53;;;;;;;47.10;33.03;;;2.10;99.90;;;2.15;98.01;100950.50;5113185;28;20040;-81
2022/11/20 09:19:21;;;;;;;51.67;33.23;;;2.10;99.90;;;2.16;97.75;100939.22;5113217;28;20408;-81
2022/11/20 09:22:05;;;;;;;53.83;33.97;;;2.10;99.90;;;2.13;98.29;100931.31;5094981;28;20092;-81
2022/11/20 09:24:33;;;;;;;52.73;32.87;;;2.10;99.90;;;2.02;98.47;100920.53;5113416;28;20044;-81
2022/11/20 09:27:06;;;;;;;57.40;36.73;;;2.00;99.90;;;2.03;98.63;100914.50;5112976;28;20039;-81
2022/11/20 09:29:35;;;;;;;54.80;34.77;;;2.10;99.90;;;2.17;98.93;100912.28;5094847;28;20043;-81
2022/11/20 09:32:03;;;;;;;54.50;35.63;;;2.10;99.90;;;1.97;98.96;100874.28;5112732;28;20122;-81
2022/11/20 09:34:32;;;;;;;57.07;34.67;;;2.10;99.90;;;2.10;99.44;100886.84;5116436;28;20044;-82
2022/11/20 09:37:01;;;;;;;55.83;35.47;;;2.20;99.90;;;2.08;99.54;100884.19;5116668;28;20047;-81
2022/11/20 09:39:38;;;;;;;60.43;37.57;;;2.20;99.90;;;2.19;99.92;100887.13;5117039;28;20126;-81
2022/11/20 09:42:34;;;;;;;60.27;36.83;;;2.20;99.90;;;2.32;99.97;100890.13;5117403;28;20044;-81
2022/11/20 09:45:27;;;;;;;59.00;35.50;;;2.30;99.90;;;2.18;100.00;100882.75;5116827;28;20140;-81
2022/11/20 09:48:31;;;;;;;60.63;36.70;;;2.40;99.90;;;2.41;99.65;100863.41;5114135;28;20056;-82
2022/11/20 09:51:14;;;;;;;57.93;36.33;;;2.50;99.90;;;2.40;99.41;100852.06;5096242;28;20044;-82
2022/11/20 09:54:01;;;;;;;59.53;37.43;;;2.50;99.90;;;2.51;100.00;100862.81;5116411;28;20127;-81
2022/11/20 09:56:30;;;;;;;60.97;38.33;;;2.50;99.90;;;2.26;100.00;100832.56;5116744;28;20089;-83
2022/11/20 09:59:06;;;;;;;63.93;37.37;;;2.50;99.90;;;2.59;100.00;100846.50;5098366;28;20051;-81
2022/11/20 10:01:40;;;;;;;62.57;40.13;;;2.60;99.90;;;2.73;100.00;100853.00;5098451;28;20058;-81
2022/11/20 10:04:17;;;;;;;65.70;39.77;;;2.60;99.90;;;2.85;100.00;100830.66;5098040;28;20378;-81
2022/11/20 10:06:56;;;;;;;66.70;39.97;;;2.80;99.90;;;2.98;100.00;100832.75;5116212;28;20039;-82
2022/11/20 10:09:51;;;;;;;65.50;38.13;;;2.90;99.90;;;2.89;99.95;100822.94;5098407;28;20083;-81
2022/11/20 10:12:28;;;;;;;63.07;38.70;;;2.90;99.90;;;2.83;100.00;100817.56;5097999;28;20315;-81
2022/11/20 10:15:20;;;;;;;66.70;39.77;;;2.90;99.90;;;2.87;100.00;100808.97;5115968;28;20396;-82
2022/11/20 10:18:12;;;;;;;61.90;39.47;;;2.90;99.90;;;2.94;100.00;100810.91;5097939;28;20047;-82
2022/11/20 10:20:49;;;;;;;65.13;38.60;;;2.90;99.90;;;2.79;100.00;100773.94;5097746;28;20044;-81
2022/11/20 10:23:49;;;;;;;67.17;40.90;;;3.00;99.90;;;3.01;100.00;100793.63;5116036;28;20143;-82
2022/11/20 10:26:29;;;;;;;63.40;40.23;;;3.10;99.90;;;3.27;100.00;100800.38;5115962;28;20051;-82
2022/11/20 10:29:11;;;;;;;58.88;38.58;;;3.20;99.90;;;3.35;100.00;100798.81;5115916;28;20044;-82
2022/11/20 10:31:43;;;;;;;59.87;38.77;;;3.30;99.90;;;3.27;100.00;100795.16;5097995;28;20051;-84
2022/11/20 10:34:23;;;;;;;64.47;39.67;;;3.30;99.90;;;3.23;100.00;100819.44;5116124;28;20032;-82
2022/11/20 10:36:56;;;;;;;61.40;38.40;;;3.20;99.90;;;3.46;100.00;100797.34;5116173;28;20039;-81
2022/11/20 10:39:36;;;;;;;68.53;41.93;;;3.30;99.90;;;3.56;100.00;100796.69;5115896;28;20386;-82